sensor_id;sensor_type;location;lat;lon;timestamp;pressure;altitude;pressure_sealevel;temperature;humidity
11605;BME280;5858;43.076;25.626;2023-02-20T00:01:57;99432.78;;;12.50;62.27
11605;BME280;5858;43.076;25.626;2023-02-20T00:04:24;99273.88;;;11.42;61.96
11605;BME280;5858;43.076;25.626;2023-02-20T00:06:52;99266.31;;;11.30;62.49
11605;BME280;5858;43.076;25.626;2023-02-20T00:09:21;99265.03;;;11.26;62.15
11605;BME280;5858;43.076;25.626;2023-02-20T00:11:48;99381.31;;;11.97;63.20
11605;BME280;5858;43.076;25.626;2023-02-20T00:14:15;99374.66;;;11.93;62.61
11605;BME280;5858;43.076;25.626;2023-02-20T00:16:45;99406.41;;;12.11;62.96
11605;BME280;5858;43.076;25.626;2023-02-20T00:19:14;99309.03;;;11.53;63.44
11605;BME280;5858;43.076;25.626;2023-02-20T00:21:44;99331.03;;;11.49;63.09
11605;BME280;5858;43.076;25.626;2023-02-20T00:24:12;99336.84;;;11.52;63.52
11605;BME280;5858;43.076;25.626;2023-02-20T00:26:45;99294.09;;;11.44;62.85
11605;BME280;5858;43.076;25.626;2023-02-20T00:29:15;99311.25;;;11.50;63.03
11605;BME280;5858;43.076;25.626;2023-02-20T00:31:42;99447.16;;;12.21;63.36
11605;BME280;5858;43.076;25.626;2023-02-20T00:34:14;99328.25;;;11.57;63.73
11605;BME280;5858;43.076;25.626;2023-02-20T00:36:42;99424.22;;;12.19;63.54
11605;BME280;5858;43.076;25.626;2023-02-20T00:39:09;99307.44;;;11.38;63.79
11605;BME280;5858;43.076;25.626;2023-02-20T00:41:36;99459.59;;;12.08;64.19
11605;BME280;5858;43.076;25.626;2023-02-20T00:44:04;99395.94;;;11.80;64.62
11605;BME280;5858;43.076;25.626;2023-02-20T00:46:31;99398.53;;;11.74;64.85
11605;BME280;5858;43.076;25.626;2023-02-20T00:48:58;99380.47;;;11.46;65.04
11605;BME280;5858;43.076;25.626;2023-02-20T00:51:27;99436.53;;;11.92;65.39
11605;BME280;5858;43.076;25.626;2023-02-20T00:53:56;99372.34;;;11.54;65.66
11605;BME280;5858;43.076;25.626;2023-02-20T00:56:23;99350.47;;;11.36;65.51
11605;BME280;5858;43.076;25.626;2023-02-20T00:58:50;99408.78;;;11.70;65.96
11605;BME280;5858;43.076;25.626;2023-02-20T01:01:17;99356.75;;;11.28;65.77
11605;BME280;5858;43.076;25.626;2023-02-20T01:03:44;99311.06;;;11.15;66.03
11605;BME280;5858;43.076;25.626;2023-02-20T01:06:11;99372.34;;;11.54;65.73
11605;BME280;5858;43.076;25.626;2023-02-20T01:08:43;99346.47;;;11.32;65.56
11605;BME280;5858;43.076;25.626;2023-02-20T01:11:10;99384.19;;;11.45;66.58
11605;BME280;5858;43.076;25.626;2023-02-20T01:13:38;99398.56;;;11.59;66.29
11605;BME280;5858;43.076;25.626;2023-02-20T01:16:06;99446.25;;;11.78;66.58
11605;BME280;5858;43.076;25.626;2023-02-20T01:18:35;99346.41;;;11.25;66.50
11605;BME280;5858;43.076;25.626;2023-02-20T01:21:02;99391.94;;;11.40;67.34
11605;BME280;5858;43.076;25.626;2023-02-20T01:23:29;99321.53;;;10.95;67.54
11605;BME280;5858;43.076;25.626;2023-02-20T01:25:58;99349.22;;;11.02;67.62
11605;BME280;5858;43.076;25.626;2023-02-20T01:28:27;99392.84;;;11.32;67.14
11605;BME280;5858;43.076;25.626;2023-02-20T01:30:55;99463.41;;;11.69;67.54
11605;BME280;5858;43.076;25.626;2023-02-20T01:33:22;99402.00;;;11.53;67.53
11605;BME280;5858;43.076;25.626;2023-02-20T01:35:49;99332.78;;;10.91;68.03
11605;BME280;5858;43.076;25.626;2023-02-20T01:38:16;99414.41;;;11.39;68.00
11605;BME280;5858;43.076;25.626;2023-02-20T01:40:46;99418.81;;;11.32;68.76
11605;BME280;5858;43.076;25.626;2023-02-20T01:43:16;99434.91;;;11.47;69.09
11605;BME280;5858;43.076;25.626;2023-02-20T01:45:45;99405.44;;;11.17;69.27
11605;BME280;5858;43.076;25.626;2023-02-20T01:48:21;99344.13;;;10.93;69.83
11605;BME280;5858;43.076;25.626;2023-02-20T01:50:50;99425.38;;;11.44;69.40
11605;BME280;5858;43.076;25.626;2023-02-20T01:53:20;99334.81;;;10.89;70.05
11605;BME280;5858;43.076;25.626;2023-02-20T01:55:50;99412.38;;;11.41;69.63
11605;BME280;5858;43.076;25.626;2023-02-20T01:58:25;99398.69;;;11.36;69.86
11605;BME280;5858;43.076;25.626;2023-02-20T02:00:55;99341.47;;;10.93;69.81
11605;BME280;5858;43.076;25.626;2023-02-20T02:03:27;99430.28;;;11.26;70.67
11605;BME280;5858;43.076;25.626;2023-02-20T02:05:58;99370.34;;;11.12;69.94
11605;BME280;5858;43.076;25.626;2023-02-20T02:08:28;99314.56;;;10.71;70.43
11605;BME280;5858;43.076;25.626;2023-02-20T02:10:58;99253.09;;;10.34;70.47
11605;BME280;5858;43.076;25.626;2023-02-20T02:13:28;99374.22;;;10.95;69.96
11605;BME280;5858;43.076;25.626;2023-02-20T02:16:05;99344.28;;;10.77;70.24
11605;BME280;5858;43.076;25.626;2023-02-20T02:18:46;99433.88;;;11.18;70.00
11605;BME280;5858;43.076;25.626;2023-02-20T02:21:38;99390.38;;;11.01;70.00
11605;BME280;5858;43.076;25.626;2023-02-20T02:24:42;99367.09;;;10.87;69.70
11605;BME280;5858;43.076;25.626;2023-02-20T02:30:49;99393.63;;;11.12;68.21
11605;BME280;5858;43.076;25.626;2023-02-20T02:34:08;99255.28;;;10.16;68.47
11605;BME280;5858;43.076;25.626;2023-02-20T02:36:52;99300.38;;;10.56;68.29
11605;BME280;5858;43.076;25.626;2023-02-20T02:39:27;99262.47;;;10.15;68.12
11605;BME280;5858;43.076;25.626;2023-02-20T02:42:05;99311.44;;;10.53;67.92
11605;BME280;5858;43.076;25.626;2023-02-20T02:44:37;99379.81;;;10.85;67.88
11605;BME280;5858;43.076;25.626;2023-02-20T02:47:13;99326.56;;;10.46;67.49
11605;BME280;5858;43.076;25.626;2023-02-20T02:49:46;99351.84;;;10.73;67.34
11605;BME280;5858;43.076;25.626;2023-02-20T02:52:18;99350.00;;;10.73;67.35
11605;BME280;5858;43.076;25.626;2023-02-20T02:55:01;99366.34;;;10.79;68.18
11605;BME280;5858;43.076;25.626;2023-02-20T02:57:28;99312.97;;;10.33;68.66
11605;BME280;5858;43.076;25.626;2023-02-20T02:59:59;99275.63;;;10.02;69.74
11605;BME280;5858;43.076;25.626;2023-02-20T03:02:30;99323.69;;;10.48;69.47
11605;BME280;5858;43.076;25.626;2023-02-20T03:05:00;99324.59;;;10.40;69.64
11605;BME280;5858;43.076;25.626;2023-02-20T03:07:36;99406.25;;;10.88;69.47
11605;BME280;5858;43.076;25.626;2023-02-20T03:10:09;99302.47;;;10.08;69.61
11605;BME280;5858;43.076;25.626;2023-02-20T03:12:46;99325.13;;;10.35;69.77
11605;BME280;5858;43.076;25.626;2023-02-20T03:15:21;99475.34;;;11.08;69.25
11605;BME280;5858;43.076;25.626;2023-02-20T03:18:08;99457.06;;;11.11;68.20
11605;BME280;5858;43.076;25.626;2023-02-20T03:20:41;99418.44;;;10.91;67.99
11605;BME280;5858;43.076;25.626;2023-02-20T03:23:13;99258.03;;;9.85;67.88
11605;BME280;5858;43.076;25.626;2023-02-20T03:25:46;99367.91;;;10.73;68.15
11605;BME280;5858;43.076;25.626;2023-02-20T03:28:18;99347.22;;;10.52;68.14
11605;BME280;5858;43.076;25.626;2023-02-20T03:30:51;99382.59;;;10.77;67.86
11605;BME280;5858;43.076;25.626;2023-02-20T03:33:28;99319.41;;;10.24;68.09
11605;BME280;5858;43.076;25.626;2023-02-20T03:36:17;99260.25;;;9.81;68.30
11605;BME280;5858;43.076;25.626;2023-02-20T03:39:08;99319.69;;;10.29;67.97
11605;BME280;5858;43.076;25.626;2023-02-20T03:41:56;99407.22;;;10.72;68.69
11605;BME280;5858;43.076;25.626;2023-02-20T03:44:43;99433.72;;;10.67;68.46
11605;BME280;5858;43.076;25.626;2023-02-20T03:47:13;99471.19;;;10.82;69.30
11605;BME280;5858;43.076;25.626;2023-02-20T03:49:42;99324.47;;;9.96;69.17
11605;BME280;5858;43.076;25.626;2023-02-20T03:52:10;99437.84;;;10.55;69.25
11605;BME280;5858;43.076;25.626;2023-02-20T03:54:40;99442.34;;;10.55;69.50
11605;BME280;5858;43.076;25.626;2023-02-20T03:57:10;99418.53;;;10.45;69.84
11605;BME280;5858;43.076;25.626;2023-02-20T03:59:42;99406.38;;;10.12;70.08
11605;BME280;5858;43.076;25.626;2023-02-20T04:02:15;99395.63;;;9.97;70.69
11605;BME280;5858;43.076;25.626;2023-02-20T04:04:45;99411.25;;;10.08;70.74
11605;BME280;5858;43.076;25.626;2023-02-20T04:07:15;99435.50;;;10.29;70.78
11605;BME280;5858;43.076;25.626;2023-02-20T04:09:46;99527.25;;;10.61;70.88
11605;BME280;5858;43.076;25.626;2023-02-20T04:12:17;99495.44;;;10.43;71.00
11605;BME280;5858;43.076;25.626;2023-02-20T04:14:48;99486.09;;;10.39;71.41
11605;BME280;5858;43.076;25.626;2023-02-20T04:17:20;99470.47;;;10.28;71.85
11605;BME280;5858;43.076;25.626;2023-02-20T04:19:50;99482.03;;;10.20;71.78
11605;BME280;5858;43.076;25.626;2023-02-20T04:22:20;99445.56;;;9.96;71.04
11605;BME280;5858;43.076;25.626;2023-02-20T04:24:54;99406.06;;;9.53;70.62
11605;BME280;5858;43.076;25.626;2023-02-20T04:27:22;99521.66;;;10.17;71.29
11605;BME280;5858;43.076;25.626;2023-02-20T04:29:49;99532.16;;;10.26;71.00
11605;BME280;5858;43.076;25.626;2023-02-20T04:32:16;99405.41;;;9.42;71.33
11605;BME280;5858;43.076;25.626;2023-02-20T04:34:43;99445.06;;;9.62;70.89
11605;BME280;5858;43.076;25.626;2023-02-20T04:37:12;99515.06;;;9.96;71.36
11605;BME280;5858;43.076;25.626;2023-02-20T04:39:40;99389.84;;;9.15;70.40
11605;BME280;5858;43.076;25.626;2023-02-20T04:42:09;99385.16;;;9.17;70.76
11605;BME280;5858;43.076;25.626;2023-02-20T04:44:36;99538.44;;;10.02;71.44
11605;BME280;5858;43.076;25.626;2023-02-20T04:47:06;99506.44;;;9.78;71.12
11605;BME280;5858;43.076;25.626;2023-02-20T04:49:33;99462.47;;;9.58;70.87
11605;BME280;5858;43.076;25.626;2023-02-20T04:52:00;99582.84;;;10.12;71.87
11605;BME280;5858;43.076;25.626;2023-02-20T04:54:27;99492.00;;;9.56;72.22
11605;BME280;5858;43.076;25.626;2023-02-20T04:56:54;99447.03;;;9.29;72.90
11605;BME280;5858;43.076;25.626;2023-02-20T04:59:24;99397.56;;;8.94;72.95
11605;BME280;5858;43.076;25.626;2023-02-20T05:01:51;99459.34;;;9.38;72.85
11605;BME280;5858;43.076;25.626;2023-02-20T05:04:20;99473.56;;;9.30;73.08
11605;BME280;5858;43.076;25.626;2023-02-20T05:06:50;99555.28;;;9.64;72.91
11605;BME280;5858;43.076;25.626;2023-02-20T05:09:17;99475.75;;;9.19;72.32
11605;BME280;5858;43.076;25.626;2023-02-20T05:11:44;99580.09;;;9.81;72.45
11605;BME280;5858;43.076;25.626;2023-02-20T05:14:13;99540.63;;;9.52;71.48
11605;BME280;5858;43.076;25.626;2023-02-20T05:16:42;99618.78;;;10.09;71.38
11605;BME280;5858;43.076;25.626;2023-02-20T05:19:11;99619.66;;;9.93;70.98
11605;BME280;5858;43.076;25.626;2023-02-20T05:21:41;99597.16;;;9.71;71.25
11605;BME280;5858;43.076;25.626;2023-02-20T05:24:25;99506.16;;;9.01;70.92
11605;BME280;5858;43.076;25.626;2023-02-20T05:26:53;99517.16;;;9.14;70.78
11605;BME280;5858;43.076;25.626;2023-02-20T05:29:20;99478.47;;;8.78;70.84
11605;BME280;5858;43.076;25.626;2023-02-20T05:31:50;99662.25;;;10.03;70.55
11605;BME280;5858;43.076;25.626;2023-02-20T05:34:17;99635.56;;;9.78;70.66
11605;BME280;5858;43.076;25.626;2023-02-20T05:36:45;99567.66;;;9.32;70.07
11605;BME280;5858;43.076;25.626;2023-02-20T05:39:12;99639.91;;;9.71;70.61
11605;BME280;5858;43.076;25.626;2023-02-20T05:41:47;99472.97;;;8.63;70.33
11605;BME280;5858;43.076;25.626;2023-02-20T05:44:18;99699.47;;;10.13;70.27
11605;BME280;5858;43.076;25.626;2023-02-20T05:46:51;99570.34;;;9.32;71.31
11605;BME280;5858;43.076;25.626;2023-02-20T05:49:20;99580.38;;;9.22;71.80
11605;BME280;5858;43.076;25.626;2023-02-20T05:51:57;99575.34;;;9.27;72.19
11605;BME280;5858;43.076;25.626;2023-02-20T05:54:24;99609.25;;;9.27;72.33
11605;BME280;5858;43.076;25.626;2023-02-20T05:56:56;99707.00;;;10.09;71.99
11605;BME280;5858;43.076;25.626;2023-02-20T05:59:39;99536.50;;;9.08;71.50
11605;BME280;5858;43.076;25.626;2023-02-20T06:02:10;99524.50;;;9.12;70.84
11605;BME280;5858;43.076;25.626;2023-02-20T06:04:53;99513.63;;;9.14;69.61
11605;BME280;5858;43.076;25.626;2023-02-20T06:07:21;99528.78;;;9.38;68.36
11605;BME280;5858;43.076;25.626;2023-02-20T06:09:49;99681.59;;;10.68;66.13
11605;BME280;5858;43.076;25.626;2023-02-20T06:12:19;99570.13;;;10.22;63.73
11605;BME280;5858;43.076;25.626;2023-02-20T06:14:55;99672.47;;;11.09;62.68
11605;BME280;5858;43.076;25.626;2023-02-20T06:17:24;99669.22;;;11.44;59.20
11605;BME280;5858;43.076;25.626;2023-02-20T06:20:10;99583.63;;;10.82;57.72
11605;BME280;5858;43.076;25.626;2023-02-20T06:23:09;99555.13;;;10.66;54.81
11605;BME280;5858;43.076;25.626;2023-02-20T06:29:18;99575.19;;;10.48;54.76
11605;BME280;5858;43.076;25.626;2023-02-20T06:31:49;99779.97;;;11.59;54.12
11605;BME280;5858;43.076;25.626;2023-02-20T06:34:28;99683.13;;;10.94;52.97
11605;BME280;5858;43.076;25.626;2023-02-20T06:37:29;99760.06;;;11.31;53.91
11605;BME280;5858;43.076;25.626;2023-02-20T06:40:32;99590.06;;;10.03;53.44
11605;BME280;5858;43.076;25.626;2023-02-20T06:43:31;99751.66;;;11.11;53.96
11605;BME280;5858;43.076;25.626;2023-02-20T06:45:59;99781.59;;;11.15;54.17
11605;BME280;5858;43.076;25.626;2023-02-20T06:48:40;99651.47;;;10.27;55.71
11605;BME280;5858;43.076;25.626;2023-02-20T06:51:22;99723.00;;;10.89;55.81
11605;BME280;5858;43.076;25.626;2023-02-20T06:53:55;99755.16;;;11.12;56.70
11605;BME280;5858;43.076;25.626;2023-02-20T06:56:27;99774.06;;;11.10;55.72
11605;BME280;5858;43.076;25.626;2023-02-20T06:59:08;99779.09;;;11.13;55.65
11605;BME280;5858;43.076;25.626;2023-02-20T07:01:46;99731.63;;;10.99;55.49
11605;BME280;5858;43.076;25.626;2023-02-20T07:04:30;99609.22;;;10.15;54.63
11605;BME280;5858;43.076;25.626;2023-02-20T07:07:21;99764.28;;;11.25;53.18
11605;BME280;5858;43.076;25.626;2023-02-20T07:09:49;99632.44;;;10.22;52.88
11605;BME280;5858;43.076;25.626;2023-02-20T07:12:18;99663.47;;;10.48;53.42
11605;BME280;5858;43.076;25.626;2023-02-20T07:14:49;99798.78;;;11.20;53.06
11605;BME280;5858;43.076;25.626;2023-02-20T07:17:20;99618.44;;;10.12;53.21
11605;BME280;5858;43.076;25.626;2023-02-20T07:19:48;99620.09;;;10.21;52.47
11605;BME280;5858;43.076;25.626;2023-02-20T07:22:18;99836.78;;;11.24;53.04
11605;BME280;5858;43.076;25.626;2023-02-20T07:24:54;99661.50;;;10.33;53.32
11605;BME280;5858;43.076;25.626;2023-02-20T07:27:39;99780.00;;;10.97;53.24
11605;BME280;5858;43.076;25.626;2023-02-20T07:30:10;99827.06;;;11.23;53.35
11605;BME280;5858;43.076;25.626;2023-02-20T07:32:39;99699.78;;;10.34;53.70
11605;BME280;5858;43.076;25.626;2023-02-20T07:35:22;99827.28;;;11.13;53.76
11605;BME280;5858;43.076;25.626;2023-02-20T07:37:52;99831.28;;;11.17;54.58
11605;BME280;5858;43.076;25.626;2023-02-20T07:44:06;99813.06;;;11.13;54.29
11605;BME280;5858;43.076;25.626;2023-02-20T07:46:44;99797.88;;;11.05;53.52
11605;BME280;5858;43.076;25.626;2023-02-20T07:49:18;99733.47;;;10.59;53.24
11605;BME280;5858;43.076;25.626;2023-02-20T07:51:48;99828.91;;;11.22;52.66
11605;BME280;5858;43.076;25.626;2023-02-20T07:54:35;99766.81;;;10.88;52.72
11605;BME280;5858;43.076;25.626;2023-02-20T07:57:03;99668.50;;;10.43;52.20
11605;BME280;5858;43.076;25.626;2023-02-20T07:59:45;99708.47;;;10.75;51.88
11605;BME280;5858;43.076;25.626;2023-02-20T08:02:12;99841.06;;;11.41;51.14
11605;BME280;5858;43.076;25.626;2023-02-20T08:04:40;99754.28;;;10.88;51.59
11605;BME280;5858;43.076;25.626;2023-02-20T08:07:15;99697.09;;;10.42;52.28
11605;BME280;5858;43.076;25.626;2023-02-20T08:09:45;99825.31;;;11.07;51.96
11605;BME280;5858;43.076;25.626;2023-02-20T08:12:14;99751.25;;;10.44;52.62
11605;BME280;5858;43.076;25.626;2023-02-20T08:14:42;99759.94;;;10.46;52.38
11605;BME280;5858;43.076;25.626;2023-02-20T08:17:10;99765.28;;;10.38;51.55
11605;BME280;5858;43.076;25.626;2023-02-20T08:19:39;99847.13;;;10.96;53.01
11605;BME280;5858;43.076;25.626;2023-02-20T08:22:11;99718.22;;;10.04;51.54
11605;BME280;5858;43.076;25.626;2023-02-20T08:24:56;99677.81;;;9.83;51.64
11605;BME280;5858;43.076;25.626;2023-02-20T08:27:27;99808.41;;;10.59;51.88
11605;BME280;5858;43.076;25.626;2023-02-20T08:29:58;99864.72;;;10.90;51.81
11605;BME280;5858;43.076;25.626;2023-02-20T08:32:27;99846.47;;;10.86;52.59
11605;BME280;5858;43.076;25.626;2023-02-20T08:35:12;99755.59;;;10.37;53.19
11605;BME280;5858;43.076;25.626;2023-02-20T08:37:42;99850.94;;;11.01;53.23
11605;BME280;5858;43.076;25.626;2023-02-20T08:40:40;99814.50;;;10.92;52.38
11605;BME280;5858;43.076;25.626;2023-02-20T08:43:20;99699.97;;;10.24;49.96
11605;BME280;5858;43.076;25.626;2023-02-20T08:49:17;99881.50;;;12.16;49.28
11605;BME280;5858;43.076;25.626;2023-02-20T08:51:58;99692.56;;;11.35;48.06
11605;BME280;5858;43.076;25.626;2023-02-20T08:54:38;99782.22;;;12.16;47.35
11605;BME280;5858;43.076;25.626;2023-02-20T08:57:11;99865.31;;;12.62;46.58
11605;BME280;5858;43.076;25.626;2023-02-20T08:59:45;99653.97;;;11.22;46.49
11605;BME280;5858;43.076;25.626;2023-02-20T09:02:16;99752.66;;;11.87;46.34
11605;BME280;5858;43.076;25.626;2023-02-20T09:04:59;99831.63;;;12.74;46.44
11605;BME280;5858;43.076;25.626;2023-02-20T09:07:33;99817.50;;;12.28;45.57
11605;BME280;5858;43.076;25.626;2023-02-20T09:10:01;99823.59;;;12.22;46.41
11605;BME280;5858;43.076;25.626;2023-02-20T09:12:29;99870.31;;;12.65;45.92
11605;BME280;5858;43.076;25.626;2023-02-20T09:15:11;99855.28;;;12.79;45.89
11605;BME280;5858;43.076;25.626;2023-02-20T09:17:46;99827.38;;;12.27;45.34
11605;BME280;5858;43.076;25.626;2023-02-20T09:20:19;99880.09;;;12.43;45.97
11605;BME280;5858;43.076;25.626;2023-02-20T09:22:47;99818.97;;;11.93;46.49
11605;BME280;5858;43.076;25.626;2023-02-20T09:25:16;99861.94;;;12.08;46.59
11605;BME280;5858;43.076;25.626;2023-02-20T09:27:44;99862.13;;;12.06;47.12
11605;BME280;5858;43.076;25.626;2023-02-20T09:30:22;99859.22;;;11.93;46.99
11605;BME280;5858;43.076;25.626;2023-02-20T09:32:54;99854.91;;;11.84;46.31
11605;BME280;5858;43.076;25.626;2023-02-20T09:35:29;99807.78;;;11.58;46.45
11605;BME280;5858;43.076;25.626;2023-02-20T09:37:57;99873.16;;;11.88;46.54
11605;BME280;5858;43.076;25.626;2023-02-20T09:40:26;99832.69;;;11.67;46.89
11605;BME280;5858;43.076;25.626;2023-02-20T09:43:06;99839.66;;;11.84;47.22
11605;BME280;5858;43.076;25.626;2023-02-20T09:45:40;99850.97;;;12.17;46.23
11605;BME280;5858;43.076;25.626;2023-02-20T09:48:22;99850.81;;;11.96;46.82
11605;BME280;5858;43.076;25.626;2023-02-20T09:50:58;99769.19;;;11.45;46.08
11605;BME280;5858;43.076;25.626;2023-02-20T09:53:31;99860.03;;;11.93;46.00
11605;BME280;5858;43.076;25.626;2023-02-20T09:56:01;99900.16;;;12.10;46.54
11605;BME280;5858;43.076;25.626;2023-02-20T09:58:42;99900.34;;;12.08;46.35
11605;BME280;5858;43.076;25.626;2023-02-20T10:01:12;99819.16;;;11.60;46.54
11605;BME280;5858;43.076;25.626;2023-02-20T10:03:52;99804.41;;;11.33;46.27
11605;BME280;5858;43.076;25.626;2023-02-20T10:06:24;99900.75;;;11.97;46.41
11605;BME280;5858;43.076;25.626;2023-02-20T10:08:52;99896.53;;;12.03;47.02
11605;BME280;5858;43.076;25.626;2023-02-20T10:14:30;99897.41;;;12.18;46.04
11605;BME280;5858;43.076;25.626;2023-02-20T10:17:09;99820.13;;;11.45;46.20
11605;BME280;5858;43.076;25.626;2023-02-20T10:19:46;99825.19;;;11.62;46.55
11605;BME280;5858;43.076;25.626;2023-02-20T10:22:20;99880.59;;;12.01;46.24
11605;BME280;5858;43.076;25.626;2023-02-20T10:24:59;99881.56;;;12.08;46.14
11605;BME280;5858;43.076;25.626;2023-02-20T10:27:41;99799.88;;;11.65;45.56
11605;BME280;5858;43.076;25.626;2023-02-20T10:30:13;99870.41;;;12.19;45.58
11605;BME280;5858;43.076;25.626;2023-02-20T10:32:44;99792.63;;;11.96;45.05
11605;BME280;5858;43.076;25.626;2023-02-20T10:35:16;99795.09;;;11.75;44.76
11605;BME280;5858;43.076;25.626;2023-02-20T10:37:55;99817.38;;;12.21;44.78
11605;BME280;5858;43.076;25.626;2023-02-20T10:40:34;99697.91;;;11.58;44.18
11605;BME280;5858;43.076;25.626;2023-02-20T10:43:15;99662.66;;;11.47;43.61
11605;BME280;5858;43.076;25.626;2023-02-20T10:46:03;99848.50;;;12.83;43.53
11605;BME280;5858;43.076;25.626;2023-02-20T10:48:43;99844.78;;;12.99;43.62
11605;BME280;5858;43.076;25.626;2023-02-20T10:51:16;99710.34;;;11.97;43.14
11605;BME280;5858;43.076;25.626;2023-02-20T10:53:51;99867.84;;;13.08;42.00
11605;BME280;5858;43.076;25.626;2023-02-20T10:56:25;99803.94;;;12.59;42.64
11605;BME280;5858;43.076;25.626;2023-02-20T10:58:59;99733.56;;;12.05;42.92
11605;BME280;5858;43.076;25.626;2023-02-20T11:01:56;99837.66;;;12.76;42.48
11605;BME280;5858;43.076;25.626;2023-02-20T11:04:29;99659.09;;;11.69;42.75
11605;BME280;5858;43.076;25.626;2023-02-20T11:07:12;99762.19;;;12.56;42.64
11605;BME280;5858;43.076;25.626;2023-02-20T11:09:42;99844.63;;;13.00;42.08
11605;BME280;5858;43.076;25.626;2023-02-20T11:12:23;99853.22;;;13.10;42.06
11605;BME280;5858;43.076;25.626;2023-02-20T11:14:55;99853.78;;;13.06;41.62
11605;BME280;5858;43.076;25.626;2023-02-20T11:17:33;99672.41;;;12.00;42.12
11605;BME280;5858;43.076;25.626;2023-02-20T11:20:02;99870.94;;;13.19;40.97
11605;BME280;5858;43.076;25.626;2023-02-20T11:22:40;99749.25;;;12.45;41.25
11605;BME280;5858;43.076;25.626;2023-02-20T11:25:25;99815.00;;;12.79;41.40
11605;BME280;5858;43.076;25.626;2023-02-20T11:27:55;99778.03;;;12.66;41.31
11605;BME280;5858;43.076;25.626;2023-02-20T11:30:27;99883.78;;;13.09;40.83
11605;BME280;5858;43.076;25.626;2023-02-20T11:33:09;99692.00;;;11.86;40.52
11605;BME280;5858;43.076;25.626;2023-02-20T11:35:38;99781.72;;;12.50;41.32
11605;BME280;5858;43.076;25.626;2023-02-20T11:38:26;99830.13;;;12.57;40.93
11605;BME280;5858;43.076;25.626;2023-02-20T11:41:25;99778.41;;;12.48;40.65
11605;BME280;5858;43.076;25.626;2023-02-20T11:44:16;99837.78;;;12.83;41.23
11605;BME280;5858;43.076;25.626;2023-02-20T11:47:09;99869.34;;;12.96;41.45
11605;BME280;5858;43.076;25.626;2023-02-20T11:52:58;99694.03;;;11.84;41.82
11605;BME280;5858;43.076;25.626;2023-02-20T11:53:33;99760.28;;;12.13;41.37
11605;BME280;5858;43.076;25.626;2023-02-20T11:56:11;99770.56;;;12.24;42.03
11605;BME280;5858;43.076;25.626;2023-02-20T11:58:39;99829.41;;;12.48;41.77
11605;BME280;5858;43.076;25.626;2023-02-20T12:01:27;99775.94;;;12.24;42.09
11605;BME280;5858;43.076;25.626;2023-02-20T12:03:57;99732.63;;;12.12;42.30
11605;BME280;5858;43.076;25.626;2023-02-20T12:06:42;99758.88;;;12.40;42.50
11605;BME280;5858;43.076;25.626;2023-02-20T12:09:17;99783.50;;;12.58;41.33
11605;BME280;5858;43.076;25.626;2023-02-20T12:11:48;99839.81;;;12.96;40.89
11605;BME280;5858;43.076;25.626;2023-02-20T12:14:18;99852.59;;;12.93;40.71
11605;BME280;5858;43.076;25.626;2023-02-20T12:17:05;99765.03;;;12.25;40.58
11605;BME280;5858;43.076;25.626;2023-02-20T12:19:47;99670.75;;;11.84;41.25
11605;BME280;5858;43.076;25.626;2023-02-20T12:22:33;99755.81;;;12.57;41.18
11605;BME280;5858;43.076;25.626;2023-02-20T12:25:19;99662.97;;;11.89;40.71
11605;BME280;5858;43.076;25.626;2023-02-20T12:28:03;99763.31;;;12.62;40.89
11605;BME280;5858;43.076;25.626;2023-02-20T12:30:50;99776.06;;;12.75;40.22
11605;BME280;5858;43.076;25.626;2023-02-20T12:33:39;99742.94;;;12.68;39.94
11605;BME280;5858;43.076;25.626;2023-02-20T12:36:15;99739.50;;;12.59;39.84
11605;BME280;5858;43.076;25.626;2023-02-20T12:38:52;99652.72;;;12.22;39.08
11605;BME280;5858;43.076;25.626;2023-02-20T12:41:44;99760.59;;;13.06;38.97
11605;BME280;5858;43.076;25.626;2023-02-20T12:44:28;99768.25;;;13.09;39.44
11605;BME280;5858;43.076;25.626;2023-02-20T12:47:07;99728.88;;;12.80;38.66
11605;BME280;5858;43.076;25.626;2023-02-20T12:49:54;99791.91;;;13.29;38.30
11605;BME280;5858;43.076;25.626;2023-02-20T12:52:34;99691.72;;;12.69;37.87
11605;BME280;5858;43.076;25.626;2023-02-20T12:55:11;99739.00;;;13.00;37.08
11605;BME280;5858;43.076;25.626;2023-02-20T12:57:47;99742.47;;;12.93;37.44
11605;BME280;5858;43.076;25.626;2023-02-20T13:00:31;99827.31;;;13.53;37.50
11605;BME280;5858;43.076;25.626;2023-02-20T13:03:04;99725.81;;;12.83;37.77
11605;BME280;5858;43.076;25.626;2023-02-20T13:05:34;99770.69;;;13.04;37.93
11605;BME280;5858;43.076;25.626;2023-02-20T13:08:08;99768.00;;;13.04;38.07
11605;BME280;5858;43.076;25.626;2023-02-20T13:10:46;99830.69;;;13.41;38.28
11605;BME280;5858;43.076;25.626;2023-02-20T13:13:14;99717.38;;;12.72;37.21
11605;BME280;5858;43.076;25.626;2023-02-20T13:15:49;99785.47;;;13.15;37.92
11605;BME280;5858;43.076;25.626;2023-02-20T13:18:22;99815.34;;;13.35;37.82
11605;BME280;5858;43.076;25.626;2023-02-20T13:20:54;99740.34;;;12.89;36.99
11605;BME280;5858;43.076;25.626;2023-02-20T13:23:30;99830.97;;;13.46;36.98
11605;BME280;5858;43.076;25.626;2023-02-20T13:25:58;99788.72;;;13.10;37.32
11605;BME280;5858;43.076;25.626;2023-02-20T13:28:43;99842.84;;;13.37;37.50
11605;BME280;5858;43.076;25.626;2023-02-20T13:31:15;99768.22;;;12.88;37.71
11605;BME280;5858;43.076;25.626;2023-02-20T13:33:44;99802.63;;;13.14;38.18
11605;BME280;5858;43.076;25.626;2023-02-20T13:36:37;99815.59;;;13.40;38.08
11605;BME280;5858;43.076;25.626;2023-02-20T13:42:32;99825.44;;;13.33;38.02
11605;BME280;5858;43.076;25.626;2023-02-20T13:45:01;99762.66;;;12.75;37.64
11605;BME280;5858;43.076;25.626;2023-02-20T13:47:36;99794.22;;;12.73;38.22
11605;BME280;5858;43.076;25.626;2023-02-20T13:50:31;99845.72;;;13.06;38.01
11605;BME280;5858;43.076;25.626;2023-02-20T13:53:02;99852.22;;;12.97;38.27
11605;BME280;5858;43.076;25.626;2023-02-20T13:55:31;99814.16;;;12.78;37.57
11605;BME280;5858;43.076;25.626;2023-02-20T13:58:04;99782.94;;;12.63;37.56
11605;BME280;5858;43.076;25.626;2023-02-20T14:00:45;99762.00;;;12.43;37.42
11605;BME280;5858;43.076;25.626;2023-02-20T14:03:18;99798.28;;;12.69;37.18